Time,TemperatureF,DewpointF,PressureIn,WindDirection,WindDirectionDegrees,WindSpeedMPH,WindSpeedGustMPH,Humidity,HourlyPrecipIn,Conditions,Clouds,dailyrainin,SolarRadiationWatts/m^2,SoftwareType,DateUTC
2013-07-21 00:00:00,75.0,70.0,30.28,SSW,205,4.0,10.0,84,0.00,,,0.00,0.000000,,2013-07-21 04:00:00,
2013-07-21 00:01:00,75.0,70.0,30.28,SSW,205,4.0,10.0,84,0.00,,,0.00,0.000000,,2013-07-21 04:01:00,
2013-07-21 00:11:00,75.0,70.0,30.28,SSW,205,4.0,10.0,84,0.00,,,0.00,0.000000,,2013-07-21 04:11:00,
2013-07-21 00:43:00,76.0,73.0,30.28,SW,214,3.0,7.0,89,0.00,,,0.00,0.000000,,2013-07-21 04:43:00,
2013-07-21 00:53:00,76.0,73.0,30.28,SW,214,3.0,7.0,89,0.00,,,0.00,0.000000,,2013-07-21 04:53:00,
2013-07-21 01:02:00,76.0,73.0,30.28,SW,214,3.0,7.0,89,0.00,,,0.00,0.000000,,2013-07-21 05:02:00,
2013-07-21 01:11:00,76.0,73.0,30.28,SW,214,3.0,7.0,89,0.00,,,0.00,0.000000,,2013-07-21 05:11:00,
2013-07-21 01:42:00,73.0,71.0,30.27,SW,234,2.0,8.0,93,0.00,,,0.00,0.000000,,2013-07-21 05:42:00,
2013-07-21 01:52:00,73.0,71.0,30.27,SW,234,2.0,8.0,93,0.00,,,0.00,0.000000,,2013-07-21 05:52:00,
2013-07-21 02:01:00,73.0,71.0,30.27,SW,234,2.0,8.0,93,0.00,,,0.00,0.000000,,2013-07-21 06:01:00,
2013-07-21 02:11:00,73.0,71.0,30.27,SW,234,2.0,8.0,93,0.00,,,0.00,0.000000,,2013-07-21 06:11:00,
2013-07-21 02:43:00,75.0,68.0,30.25,WSW,242,7.0,17.0,79,0.00,,,0.00,0.000000,,2013-07-21 06:43:00,
2013-07-21 02:53:00,75.0,68.0,30.25,WSW,242,7.0,17.0,79,0.00,,,0.00,0.000000,,2013-07-21 06:53:00,
2013-07-21 03:01:00,75.0,68.0,30.25,WSW,242,7.0,17.0,79,0.00,,,0.00,0.000000,,2013-07-21 07:01:00,
2013-07-21 03:11:00,75.0,68.0,30.25,WSW,242,7.0,17.0,79,0.00,,,0.00,0.000000,,2013-07-21 07:11:00,
2013-07-21 03:43:00,74.0,68.0,30.24,SW,217,5.0,11.0,83,0.00,,,0.00,0.000000,,2013-07-21 07:43:00,
2013-07-21 03:53:00,74.0,68.0,30.24,SW,217,5.0,11.0,83,0.00,,,0.00,0.000000,,2013-07-21 07:53:00,
2013-07-21 04:02:00,74.0,68.0,30.24,SW,217,5.0,11.0,83,0.00,,,0.00,0.000000,,2013-07-21 08:02:00,
2013-07-21 04:11:00,74.0,68.0,30.24,SW,217,5.0,11.0,83,0.00,,,0.00,0.000000,,2013-07-21 08:11:00,
2013-07-21 04:43:00,74.0,71.0,30.23,SSW,209,3.0,10.0,90,0.00,,,0.00,0.000000,,2013-07-21 08:43:00,
2013-07-21 04:52:00,74.0,71.0,30.23,SSW,209,3.0,10.0,90,0.00,,,0.00,0.000000,,2013-07-21 08:52:00,
2013-07-21 05:02:00,74.0,71.0,30.23,SSW,209,3.0,10.0,90,0.00,,,0.00,0.000000,,2013-07-21 09:02:00,
2013-07-21 05:12:00,74.0,71.0,30.23,SSW,209,3.0,10.0,90,0.00,,,0.00,0.000000,,2013-07-21 09:12:00,
2013-07-21 05:42:00,71.0,69.0,30.23,WSW,248,2.0,8.0,94,0.00,,,0.00,0.000000,,2013-07-21 09:42:00,
2013-07-21 05:52:00,71.0,69.0,30.23,WSW,248,2.0,8.0,94,0.00,,,0.00,0.000000,,2013-07-21 09:52:00,
2013-07-21 06:02:00,71.0,69.0,30.23,WSW,248,2.0,8.0,94,0.00,,,0.00,0.000000,,2013-07-21 10:02:00,
2013-07-21 06:11:00,71.0,69.0,30.23,WSW,248,2.0,8.0,94,0.00,,,0.00,0.000000,,2013-07-21 10:11:00,
2013-07-21 06:43:00,71.0,70.0,30.24,SSW,212,2.0,5.0,96,0.00,,,0.00,0.000000,,2013-07-21 10:43:00,
2013-07-21 06:52:00,71.0,70.0,30.24,SSW,212,2.0,5.0,96,0.00,,,0.00,0.000000,,2013-07-21 10:52:00,
2013-07-21 07:02:00,71.0,70.0,30.24,SSW,212,2.0,5.0,96,0.00,,,0.00,0.000000,,2013-07-21 11:02:00,
2013-07-21 07:12:00,71.0,70.0,30.24,SSW,212,2.0,5.0,96,0.00,,,0.00,0.000000,,2013-07-21 11:12:00,
2013-07-21 07:43:00,76.0,73.0,30.26,WSW,249,1.0,5.0,90,0.00,,,0.00,15.000000,,2013-07-21 11:43:00,
2013-07-21 07:52:00,76.0,73.0,30.26,WSW,249,1.0,5.0,90,0.00,,,0.00,15.000000,,2013-07-21 11:52:00,
2013-07-21 08:01:00,76.0,73.0,30.26,WSW,249,1.0,5.0,90,0.00,,,0.00,15.000000,,2013-07-21 12:01:00,
2013-07-21 08:11:00,76.0,73.0,30.26,WSW,249,1.0,5.0,90,0.00,,,0.00,15.000000,,2013-07-21 12:11:00,
2013-07-21 08:43:00,77.0,72.0,30.27,West,266,6.0,13.0,86,0.00,,,0.00,158.000000,,2013-07-21 12:43:00,
2013-07-21 08:53:00,77.0,72.0,30.27,West,266,6.0,13.0,86,0.00,,,0.00,158.000000,,2013-07-21 12:53:00,
2013-07-21 09:02:00,77.0,72.0,30.27,West,266,6.0,13.0,86,0.00,,,0.00,158.000000,,2013-07-21 13:02:00,
2013-07-21 09:12:00,77.0,72.0,30.27,West,266,6.0,13.0,86,0.00,,,0.00,158.000000,,2013-07-21 13:12:00,
2013-07-21 09:43:00,76.0,72.0,30.27,NNE,14,4.0,13.0,87,0.00,,,0.00,134.000000,,2013-07-21 13:43:00,
2013-07-21 09:53:00,76.0,72.0,30.27,NNE,14,4.0,13.0,87,0.00,,,0.00,134.000000,,2013-07-21 13:53:00,
2013-07-21 10:02:00,76.0,72.0,30.27,NNE,14,4.0,13.0,87,0.00,,,0.00,134.000000,,2013-07-21 14:02:00,
2013-07-21 10:12:00,76.0,72.0,30.27,NNE,14,4.0,13.0,87,0.00,,,0.00,134.000000,,2013-07-21 14:12:00,
2013-07-21 10:43:00,77.0,72.0,30.28,WNW,283,5.0,12.0,85,0.00,,,0.00,152.000000,,2013-07-21 14:43:00,
2013-07-21 10:53:00,77.0,72.0,30.28,WNW,283,5.0,12.0,85,0.00,,,0.00,152.000000,,2013-07-21 14:53:00,
2013-07-21 11:02:00,77.0,72.0,30.28,WNW,283,5.0,12.0,85,0.00,,,0.00,152.000000,,2013-07-21 15:02:00,
2013-07-21 11:11:00,77.0,72.0,30.28,WNW,283,5.0,12.0,85,0.00,,,0.00,152.000000,,2013-07-21 15:11:00,
2013-07-21 11:43:00,80.0,72.0,30.28,SW,236,6.0,14.0,77,0.00,,,0.00,266.000000,,2013-07-21 15:43:00,
2013-07-21 11:53:00,80.0,72.0,30.28,SW,236,6.0,14.0,77,0.00,,,0.00,266.000000,,2013-07-21 15:53:00,
2013-07-21 12:02:00,80.0,72.0,30.28,SW,236,6.0,14.0,77,0.00,,,0.00,266.000000,,2013-07-21 16:02:00,
2013-07-21 12:11:00,80.0,72.0,30.28,SW,236,6.0,14.0,77,0.00,,,0.00,266.000000,,2013-07-21 16:11:00,
2013-07-21 12:43:00,81.0,74.0,30.28,WSW,240,6.0,13.0,79,0.00,,,0.00,416.000000,,2013-07-21 16:43:00,
2013-07-21 12:52:00,81.0,74.0,30.28,WSW,240,6.0,13.0,79,0.00,,,0.00,416.000000,,2013-07-21 16:52:00,
2013-07-21 13:02:00,81.0,74.0,30.28,WSW,240,6.0,13.0,79,0.00,,,0.00,416.000000,,2013-07-21 17:02:00,
2013-07-21 13:11:00,81.0,74.0,30.28,WSW,240,6.0,13.0,79,0.00,,,0.00,416.000000,,2013-07-21 17:11:00,
2013-07-21 13:43:00,82.0,72.0,30.26,WSW,244,7.0,14.0,71,0.00,,,0.00,509.000000,,2013-07-21 17:43:00,
2013-07-21 13:53:00,82.0,72.0,30.26,WSW,244,7.0,14.0,71,0.00,,,0.00,509.000000,,2013-07-21 17:53:00,
2013-07-21 14:01:00,82.0,72.0,30.26,WSW,244,7.0,14.0,71,0.00,,,0.00,509.000000,,2013-07-21 18:01:00,
2013-07-21 14:11:00,82.0,72.0,30.26,WSW,244,7.0,14.0,71,0.00,,,0.00,509.000000,,2013-07-21 18:11:00,
2013-07-21 14:43:00,87.0,74.0,30.24,SW,225,7.0,17.0,66,0.00,,,0.00,574.000000,,2013-07-21 18:43:00,
2013-07-21 14:52:00,87.0,74.0,30.24,SW,225,7.0,17.0,66,0.00,,,0.00,574.000000,,2013-07-21 18:52:00,
2013-07-21 15:01:00,87.0,74.0,30.24,SW,225,7.0,17.0,66,0.00,,,0.00,574.000000,,2013-07-21 19:01:00,
2013-07-21 15:11:00,87.0,74.0,30.24,SW,225,7.0,17.0,66,0.00,,,0.00,574.000000,,2013-07-21 19:11:00,
2013-07-21 15:42:00,86.0,72.0,30.22,SW,235,7.0,16.0,64,0.00,,,0.00,848.000000,,2013-07-21 19:42:00,
2013-07-21 15:52:00,86.0,72.0,30.22,SW,235,7.0,16.0,64,0.00,,,0.00,848.000000,,2013-07-21 19:52:00,
2013-07-21 16:02:00,86.0,72.0,30.22,SW,235,7.0,16.0,64,0.00,,,0.00,848.000000,,2013-07-21 20:02:00,
2013-07-21 16:12:00,86.0,72.0,30.22,SW,235,7.0,16.0,64,0.00,,,0.00,848.000000,,2013-07-21 20:12:00,
2013-07-21 16:43:00,85.0,72.0,30.20,SW,218,9.0,18.0,65,0.00,,,0.00,668.000000,,2013-07-21 20:43:00,
2013-07-21 16:52:00,85.0,72.0,30.20,SW,218,9.0,18.0,65,0.00,,,0.00,668.000000,,2013-07-21 20:52:00,
2013-07-21 17:01:00,85.0,72.0,30.20,SW,218,9.0,18.0,65,0.00,,,0.00,668.000000,,2013-07-21 21:01:00,
2013-07-21 17:11:00,85.0,72.0,30.20,SW,218,9.0,18.0,65,0.00,,,0.00,668.000000,,2013-07-21 21:11:00,
2013-07-21 17:43:00,81.0,74.0,30.19,SSW,198,6.0,19.0,79,0.00,,,0.00,450.000000,,2013-07-21 21:43:00,
2013-07-21 17:52:00,81.0,74.0,30.19,SSW,198,6.0,19.0,79,0.00,,,0.00,450.000000,,2013-07-21 21:52:00,
2013-07-21 18:01:00,81.0,74.0,30.19,SSW,198,6.0,19.0,79,0.00,,,0.00,450.000000,,2013-07-21 22:01:00,
2013-07-21 18:11:00,81.0,74.0,30.19,SSW,198,6.0,19.0,79,0.00,,,0.00,450.000000,,2013-07-21 22:11:00,
2013-07-21 18:43:00,86.0,75.0,30.19,SW,228,8.0,19.0,70,0.00,,,0.00,450.000000,,2013-07-21 22:43:00,
2013-07-21 18:52:00,86.0,75.0,30.19,SW,228,8.0,19.0,70,0.00,,,0.00,450.000000,,2013-07-21 22:52:00,
2013-07-21 19:02:00,86.0,75.0,30.19,SW,228,8.0,19.0,70,0.00,,,0.00,450.000000,,2013-07-21 23:02:00,
2013-07-21 19:11:00,86.0,75.0,30.19,SW,228,8.0,19.0,70,0.00,,,0.00,450.000000,,2013-07-21 23:11:00,
2013-07-21 19:43:00,84.0,74.0,30.19,SW,224,6.0,18.0,73,0.00,,,0.00,313.000000,,2013-07-21 23:43:00,
2013-07-21 19:53:00,84.0,74.0,30.19,SW,224,6.0,18.0,73,0.00,,,0.00,313.000000,,2013-07-21 23:53:00,
2013-07-21 20:01:00,84.0,74.0,30.19,SW,224,6.0,18.0,73,0.00,,,0.00,313.000000,,2013-07-22 00:01:00,
2013-07-21 20:11:00,84.0,74.0,30.19,SW,224,6.0,18.0,73,0.00,,,0.00,313.000000,,2013-07-22 00:11:00,
2013-07-21 20:42:00,79.0,73.0,30.22,SSW,211,5.0,12.0,82,0.00,,,0.00,87.000000,,2013-07-22 00:42:00,
2013-07-21 20:53:00,79.0,73.0,30.22,SSW,211,5.0,12.0,82,0.00,,,0.00,87.000000,,2013-07-22 00:53:00,
2013-07-21 21:02:00,79.0,73.0,30.22,SSW,211,5.0,12.0,82,0.00,,,0.00,87.000000,,2013-07-22 01:02:00,
2013-07-21 21:12:00,79.0,73.0,30.22,SSW,211,5.0,12.0,82,0.00,,,0.00,87.000000,,2013-07-22 01:12:00,
2013-07-21 21:42:00,79.0,75.0,30.22,SW,224,4.0,10.0,87,0.00,,,0.00,1.000000,,2013-07-22 01:42:00,
2013-07-21 21:52:00,79.0,75.0,30.22,SW,224,4.0,10.0,87,0.00,,,0.00,1.000000,,2013-07-22 01:52:00,
2013-07-21 22:02:00,79.0,75.0,30.22,SW,224,4.0,10.0,87,0.00,,,0.00,1.000000,,2013-07-22 02:02:00,
2013-07-21 22:11:00,79.0,75.0,30.22,SW,224,4.0,10.0,87,0.00,,,0.00,1.000000,,2013-07-22 02:11:00,
2013-07-21 22:43:00,76.0,73.0,30.23,SW,225,3.0,8.0,91,0.00,,,0.00,0.000000,,2013-07-22 02:43:00,
2013-07-21 22:52:00,76.0,73.0,30.23,SW,225,3.0,8.0,91,0.00,,,0.00,0.000000,,2013-07-22 02:52:00,
2013-07-21 23:01:00,76.0,73.0,30.23,SW,225,3.0,8.0,91,0.00,,,0.00,0.000000,,2013-07-22 03:01:00,
2013-07-21 23:12:00,76.0,73.0,30.23,SW,225,3.0,8.0,91,0.00,,,0.00,0.000000,,2013-07-22 03:12:00,
2013-07-21 23:43:00,76.0,74.0,30.23,SSW,193,2.0,6.0,93,0.00,,,0.00,0.000000,,2013-07-22 03:43:00,
2013-07-21 23:53:00,76.0,74.0,30.23,SSW,193,2.0,6.0,93,0.00,,,0.00,0.000000,,2013-07-22 03:53:00,